Time;durP1;ratioP1;P1;durP2;ratioP2;P2;SDS_P1;SDS_P2;PMS_P1;PMS_P2;Temp;Humidity;BMP_temperature;BMP_pressure;BME280_temperature;BME280_humidity;BME280_pressure;Samples;Min_cycle;Max_cycle;Signal;HPM_P1;HPM_P2
2023/09/24 00:00:43;;;;;;;22.70;9.45;;;14.40;99.90;;;;;;4249539;27;20122;-54
2023/09/24 00:02:45;;;;;;;16.95;9.52;;;14.40;99.90;;;;;;4249787;27;20047;-54
2023/09/24 00:04:47;;;;;;;17.17;9.13;;;14.40;99.90;;;;;;4249948;27;20046;-53
2023/09/24 00:06:51;;;;;;;15.95;8.68;;;14.40;99.90;;;;;;4250625;27;20058;-54
2023/09/24 00:08:53;;;;;;;18.45;9.40;;;14.40;99.90;;;;;;4250055;27;20047;-53
2023/09/24 00:10:55;;;;;;;20.08;9.30;;;14.30;99.90;;;;;;4249188;27;20096;-53
2023/09/24 00:12:58;;;;;;;15.70;8.82;;;14.40;99.90;;;;;;4249580;27;20040;-54
2023/09/24 00:15:01;;;;;;;17.80;9.40;;;14.30;99.90;;;;;;4249542;27;20126;-52
2023/09/24 00:17:03;;;;;;;14.45;9.27;;;14.30;99.90;;;;;;4231222;28;20097;-54
2023/09/24 00:19:06;;;;;;;17.35;8.60;;;14.30;99.90;;;;;;4232488;28;20073;-53
2023/09/24 00:21:08;;;;;;;18.00;9.43;;;14.20;99.90;;;;;;4232359;28;20101;-53
2023/09/24 00:23:11;;;;;;;16.73;8.60;;;14.30;99.90;;;;;;4232502;28;20063;-52
2023/09/24 00:25:14;;;;;;;18.15;8.82;;;14.30;99.90;;;;;;4232261;28;20481;-54
2023/09/24 00:27:16;;;;;;;19.95;9.80;;;14.20;99.90;;;;;;4232127;28;20047;-53
2023/09/24 00:29:19;;;;;;;14.25;8.25;;;14.30;99.90;;;;;;4232269;28;20501;-53
2023/09/24 00:31:22;;;;;;;17.40;9.48;;;14.20;99.90;;;;;;4232260;28;20040;-53
2023/09/24 00:33:25;;;;;;;20.10;10.63;;;14.20;99.90;;;;;;4232046;28;20122;-54
2023/09/24 00:35:27;;;;;;;18.67;9.45;;;14.10;99.90;;;;;;4214145;28;20047;-53
2023/09/24 00:37:29;;;;;;;18.42;9.80;;;14.10;99.90;;;;;;4232201;28;20051;-53
2023/09/24 00:39:33;;;;;;;17.92;10.15;;;14.10;99.90;;;;;;4231881;28;20046;-53
2023/09/24 00:41:36;;;;;;;16.90;10.02;;;14.10;99.90;;;;;;4232085;28;20474;-54
2023/09/24 00:43:38;;;;;;;17.88;9.20;;;14.10;99.90;;;;;;4230770;28;20040;-53
2023/09/24 00:45:42;;;;;;;17.35;10.25;;;14.10;99.90;;;;;;4232219;28;20091;-53
2023/09/24 00:47:47;;;;;;;21.85;10.55;;;14.10;99.90;;;;;;4231783;28;20504;-53
2023/09/24 00:49:50;;;;;;;17.17;9.95;;;14.10;99.90;;;;;;4231813;28;20059;-53
2023/09/24 00:51:52;;;;;;;18.65;10.48;;;14.10;99.90;;;;;;4231930;28;20051;-53
2023/09/24 00:53:55;;;;;;;16.73;10.82;;;14.00;99.90;;;;;;4231654;28;20454;-55
2023/09/24 00:55:59;;;;;;;20.85;10.82;;;14.00;99.90;;;;;;4231789;28;20069;-53
2023/09/24 00:58:03;;;;;;;18.75;10.85;;;13.90;99.90;;;;;;4231789;28;20044;-53
2023/09/24 01:00:11;;;;;;;15.52;9.45;;;13.90;99.90;;;;;;4231915;28;20425;-53
2023/09/24 01:02:14;;;;;;;17.20;10.63;;;13.90;99.90;;;;;;4213583;28;20474;-53
2023/09/24 01:04:17;;;;;;;16.45;10.40;;;14.00;99.90;;;;;;4231560;28;20043;-54
2023/09/24 01:06:19;;;;;;;17.77;10.45;;;14.00;99.90;;;;;;4231572;28;20054;-53
2023/09/24 01:08:22;;;;;;;20.42;10.00;;;14.00;99.90;;;;;;4231483;28;20048;-53
2023/09/24 01:10:25;;;;;;;19.65;11.73;;;14.00;99.90;;;;;;4231996;28;20044;-53
2023/09/24 01:12:32;;;;;;;19.80;10.98;;;14.00;99.90;;;;;;4231986;28;20063;-56
2023/09/24 01:14:34;;;;;;;22.00;11.93;;;14.00;99.90;;;;;;4231930;28;20078;-53
2023/09/24 01:16:37;;;;;;;17.25;10.63;;;14.00;99.90;;;;;;4236087;27;20099;-53
2023/09/24 01:18:42;;;;;;;19.92;11.38;;;14.00;99.90;;;;;;4231341;28;20405;-54
2023/09/24 01:20:44;;;;;;;20.63;10.82;;;13.90;99.90;;;;;;4249011;27;20051;-52
2023/09/24 01:22:48;;;;;;;21.73;11.90;;;13.90;99.90;;;;;;4249116;27;20043;-52
2023/09/24 01:24:52;;;;;;;16.37;9.13;;;13.90;99.90;;;;;;4249264;27;20393;-56
2023/09/24 01:26:56;;;;;;;18.08;11.50;;;13.80;99.90;;;;;;4249238;27;20443;-53
2023/09/24 01:28:59;;;;;;;20.17;11.48;;;13.90;99.90;;;;;;4249152;27;20507;-53
2023/09/24 01:31:01;;;;;;;21.70;12.05;;;13.80;99.90;;;;;;4248787;27;20382;-53
2023/09/24 01:33:05;;;;;;;22.92;11.68;;;13.80;99.90;;;;;;4248630;27;20094;-54
2023/09/24 01:35:08;;;;;;;20.02;11.30;;;13.80;99.90;;;;;;4248630;27;20116;-53
2023/09/24 01:37:11;;;;;;;25.08;12.35;;;13.80;99.90;;;;;;4248377;27;20080;-53
2023/09/24 01:39:16;;;;;;;25.15;13.02;;;13.80;99.90;;;;;;4230301;28;20463;-54
2023/09/24 01:41:19;;;;;;;20.83;12.00;;;13.90;99.90;;;;;;4248140;27;20047;-53
2023/09/24 01:43:23;;;;;;;21.50;13.00;;;13.80;99.90;;;;;;4247911;27;20039;-54
2023/09/24 01:45:26;;;;;;;24.35;12.63;;;13.70;99.90;;;;;;4248049;27;20103;-53
2023/09/24 01:47:28;;;;;;;17.50;11.85;;;13.70;99.90;;;;;;4247849;27;20039;-53
2023/09/24 01:49:31;;;;;;;21.60;11.55;;;13.70;99.90;;;;;;4247847;27;20057;-53
2023/09/24 01:51:34;;;;;;;21.65;12.77;;;13.70;99.90;;;;;;4249860;27;20042;-55
2023/09/24 01:53:38;;;;;;;23.45;12.50;;;13.60;99.90;;;;;;4250557;27;20043;-52
2023/09/24 01:55:42;;;;;;;20.92;12.18;;;13.60;99.90;;;;;;4249313;27;20040;-54
2023/09/24 01:57:45;;;;;;;20.40;11.77;;;13.60;99.90;;;;;;4247806;27;20043;-52
2023/09/24 01:59:47;;;;;;;20.08;12.80;;;13.60;99.90;;;;;;4229700;28;20039;-53
2023/09/24 02:01:52;;;;;;;22.80;12.60;;;13.60;99.90;;;;;;4247935;27;20047;-52
2023/09/24 02:03:59;;;;;;;18.25;11.55;;;13.60;99.90;;;;;;4247802;27;20043;-53
2023/09/24 02:06:02;;;;;;;18.35;10.93;;;13.60;99.90;;;;;;4247675;27;20112;-53
2023/09/24 02:08:06;;;;;;;22.17;12.27;;;13.60;99.90;;;;;;4247846;27;20054;-53
2023/09/24 02:10:09;;;;;;;22.27;11.73;;;13.50;99.90;;;;;;4248284;27;20070;-52
2023/09/24 02:12:12;;;;;;;22.10;12.95;;;13.50;99.90;;;;;;4247319;27;20054;-53
2023/09/24 02:14:15;;;;;;;20.27;12.20;;;13.50;99.90;;;;;;4247979;27;20046;-54
2023/09/24 02:16:17;;;;;;;20.20;11.48;;;13.60;99.90;;;;;;4247568;27;20473;-53
2023/09/24 02:18:20;;;;;;;21.88;12.30;;;13.60;99.90;;;;;;4247646;27;20462;-53
2023/09/24 02:20:27;;;;;;;22.45;12.52;;;13.60;99.90;;;;;;4229171;28;20095;-52
2023/09/24 02:22:30;;;;;;;17.85;11.50;;;13.50;99.90;;;;;;4247761;27;20058;-53
2023/09/24 02:24:35;;;;;;;24.92;11.98;;;13.50;99.90;;;;;;4229361;28;20062;-53
2023/09/24 02:26:37;;;;;;;21.23;11.52;;;13.50;99.90;;;;;;4247662;27;20043;-53
2023/09/24 02:28:40;;;;;;;21.52;11.85;;;13.50;99.90;;;;;;4247419;28;20047;-53
2023/09/24 02:30:43;;;;;;;19.88;12.15;;;13.50;99.90;;;;;;4247672;28;20461;-53
2023/09/24 02:32:45;;;;;;;18.80;10.95;;;13.50;99.90;;;;;;4229447;28;20428;-53
2023/09/24 02:34:47;;;;;;;21.48;11.55;;;13.50;99.90;;;;;;4247215;28;20400;-53
2023/09/24 02:36:52;;;;;;;22.23;11.45;;;13.40;99.90;;;;;;4247608;28;20051;-54
2023/09/24 02:38:56;;;;;;;22.15;11.07;;;13.40;99.90;;;;;;4247532;28;20039;-54
2023/09/24 02:40:58;;;;;;;25.17;12.02;;;13.40;99.90;;;;;;4247557;28;20047;-53
2023/09/24 02:43:01;;;;;;;16.38;10.82;;;13.40;99.90;;;;;;4247494;28;20039;-53
2023/09/24 02:45:10;;;;;;;18.33;11.15;;;13.30;99.90;;;;;;4247910;28;20129;-54
2023/09/24 02:47:12;;;;;;;16.42;9.75;;;13.30;99.90;;;;;;4247608;28;20476;-53
2023/09/24 02:49:14;;;;;;;14.88;8.98;;;13.30;99.90;;;;;;4246874;27;20054;-53
2023/09/24 02:51:17;;;;;;;15.27;9.38;;;13.40;99.90;;;;;;4247698;28;20134;-53
2023/09/24 02:53:19;;;;;;;18.95;9.70;;;13.30;99.90;;;;;;4247498;28;20043;-53
2023/09/24 02:55:22;;;;;;;16.27;9.38;;;13.30;99.90;;;;;;4247321;28;20138;-53
2023/09/24 02:57:25;;;;;;;14.75;8.30;;;13.30;99.90;;;;;;4247440;28;20399;-52
2023/09/24 02:59:27;;;;;;;16.52;8.02;;;13.30;99.90;;;;;;4247753;28;20449;-53
2023/09/24 03:01:30;;;;;;;14.50;8.45;;;13.40;99.90;;;;;;4247851;28;20047;-55
2023/09/24 03:03:32;;;;;;;14.20;7.93;;;13.40;99.90;;;;;;4247876;28;20074;-53
2023/09/24 03:05:35;;;;;;;14.13;8.00;;;13.40;99.90;;;;;;4247940;28;20092;-58
2023/09/24 03:07:38;;;;;;;12.85;7.72;;;13.40;99.90;;;;;;4250233;27;20400;-54
2023/09/24 03:09:40;;;;;;;12.57;7.28;;;13.40;99.90;;;;;;4251029;27;20063;-53
2023/09/24 03:11:42;;;;;;;17.60;7.10;;;13.40;99.90;;;;;;4250635;27;20043;-53
2023/09/24 03:13:44;;;;;;;11.68;7.15;;;13.40;99.90;;;;;;4250600;27;20050;-53
2023/09/24 03:15:48;;;;;;;17.38;7.13;;;13.40;99.90;;;;;;4250288;27;20043;-54
2023/09/24 03:17:52;;;;;;;15.95;7.65;;;13.30;99.90;;;;;;4250159;27;20107;-54
2023/09/24 03:19:54;;;;;;;14.40;7.40;;;13.30;99.90;;;;;;4250291;27;20481;-53
2023/09/24 03:21:56;;;;;;;12.93;7.07;;;13.20;99.90;;;;;;4250439;27;20063;-53
2023/09/24 03:24:00;;;;;;;14.52;6.55;;;13.20;99.90;;;;;;4250529;27;20043;-53
2023/09/24 03:26:03;;;;;;;12.23;6.32;;;13.20;99.90;;;;;;4250476;27;20099;-53
2023/09/24 03:28:05;;;;;;;11.88;7.05;;;13.10;99.90;;;;;;4250405;27;20065;-53
2023/09/24 03:30:14;;;;;;;14.88;7.50;;;13.10;99.90;;;;;;4232672;28;20473;-53
2023/09/24 03:32:16;;;;;;;14.40;6.63;;;13.10;99.90;;;;;;4249816;27;20534;-54
2023/09/24 03:34:19;;;;;;;11.13;6.65;;;13.10;99.90;;;;;;4251049;27;20074;-54
2023/09/24 03:36:22;;;;;;;10.55;6.18;;;13.10;99.90;;;;;;4251857;27;20047;-52
2023/09/24 03:38:25;;;;;;;11.60;6.53;;;13.10;99.90;;;;;;4250531;27;20078;-53
2023/09/24 03:40:28;;;;;;;10.63;6.35;;;13.10;99.90;;;;;;4250125;27;20047;-53
2023/09/24 03:42:30;;;;;;;12.25;6.88;;;13.10;99.90;;;;;;4249721;27;20134;-53
2023/09/24 03:44:33;;;;;;;10.00;5.53;;;13.10;99.90;;;;;;4250044;27;20454;-54
2023/09/24 03:46:35;;;;;;;11.52;5.65;;;13.10;99.90;;;;;;4249514;27;20474;-53
2023/09/24 03:48:37;;;;;;;11.90;6.03;;;13.10;99.90;;;;;;4250212;27;20091;-53
2023/09/24 03:50:41;;;;;;;12.38;6.05;;;13.10;99.90;;;;;;4249585;27;20055;-53
2023/09/24 03:52:44;;;;;;;12.43;5.40;;;13.20;99.90;;;;;;4249798;27;20074;-53
2023/09/24 03:54:46;;;;;;;11.18;5.75;;;13.20;99.90;;;;;;4249870;27;20039;-53
2023/09/24 03:56:48;;;;;;;10.82;6.00;;;13.20;99.90;;;;;;4249713;27;20054;-53
2023/09/24 03:58:51;;;;;;;9.55;5.93;;;13.20;99.90;;;;;;4249837;27;20047;-53
2023/09/24 04:00:53;;;;;;;14.25;6.13;;;13.10;99.90;;;;;;4249780;27;20394;-53
2023/09/24 04:02:55;;;;;;;11.82;6.25;;;13.10;99.90;;;;;;4249348;27;20047;-53
2023/09/24 04:04:58;;;;;;;10.35;5.50;;;13.10;99.90;;;;;;4249737;27;20046;-54
2023/09/24 04:07:05;;;;;;;11.95;5.75;;;13.10;99.90;;;;;;4249818;27;20043;-54
2023/09/24 04:09:07;;;;;;;14.52;6.05;;;13.20;99.90;;;;;;4249250;27;20054;-54
2023/09/24 04:11:13;;;;;;;10.55;5.70;;;13.10;99.90;;;;;;4249300;27;20092;-54
2023/09/24 04:13:15;;;;;;;12.18;5.68;;;13.10;99.90;;;;;;4249656;27;20047;-53
2023/09/24 04:15:19;;;;;;;11.77;6.10;;;13.10;99.90;;;;;;4249601;27;20054;-53
2023/09/24 04:17:21;;;;;;;10.23;5.43;;;13.10;99.90;;;;;;4249003;27;20050;-53
2023/09/24 04:19:24;;;;;;;9.23;5.80;;;13.10;99.90;;;;;;4248002;27;20451;-54
2023/09/24 04:21:27;;;;;;;13.35;5.57;;;13.10;99.90;;;;;;4249369;27;20069;-54
2023/09/24 04:23:30;;;;;;;12.52;5.75;;;13.10;99.90;;;;;;4249537;27;20096;-53
2023/09/24 04:25:37;;;;;;;10.70;5.40;;;13.10;99.90;;;;;;4249234;27;20062;-53
2023/09/24 04:27:39;;;;;;;10.90;5.35;;;13.10;99.90;;;;;;4249433;27;20389;-53
2023/09/24 04:29:41;;;;;;;10.45;5.63;;;13.10;99.90;;;;;;4249457;27;20051;-53
2023/09/24 04:31:43;;;;;;;11.20;5.60;;;13.10;99.90;;;;;;4249004;27;20492;-54
2023/09/24 04:33:47;;;;;;;13.70;6.00;;;13.10;99.90;;;;;;4249073;27;20039;-53
2023/09/24 04:35:51;;;;;;;15.50;5.50;;;13.10;99.90;;;;;;4249331;27;20043;-53
2023/09/24 04:37:54;;;;;;;14.35;6.13;;;13.10;99.90;;;;;;4248951;27;20051;-53
2023/09/24 04:39:58;;;;;;;14.35;5.28;;;13.10;99.90;;;;;;4249053;27;20058;-54
2023/09/24 04:42:00;;;;;;;14.68;5.43;;;13.10;99.90;;;;;;4249007;27;20114;-53
2023/09/24 04:44:02;;;;;;;14.52;5.43;;;13.00;99.90;;;;;;4248964;27;20384;-53
2023/09/24 04:46:05;;;;;;;10.45;5.35;;;13.00;99.90;;;;;;4248895;27;20451;-53
2023/09/24 04:48:07;;;;;;;12.00;5.57;;;13.00;99.90;;;;;;4248950;27;20046;-53
2023/09/24 04:50:12;;;;;;;12.63;6.35;;;13.00;99.90;;;;;;4249495;27;20168;-56
2023/09/24 04:52:15;;;;;;;12.82;5.28;;;13.00;99.90;;;;;;4231387;27;20051;-53
2023/09/24 04:54:17;;;;;;;12.25;5.20;;;13.00;99.90;;;;;;4249461;27;20043;-57
2023/09/24 04:56:20;;;;;;;10.85;5.28;;;13.00;99.90;;;;;;4248521;27;20047;-54
2023/09/24 04:58:22;;;;;;;9.10;4.80;;;13.00;99.90;;;;;;4248789;27;20059;-53
2023/09/24 05:00:24;;;;;;;11.73;5.50;;;13.00;99.90;;;;;;4248379;27;20045;-58
2023/09/24 05:02:26;;;;;;;9.93;5.10;;;13.00;99.90;;;;;;4248838;27;20436;-53
2023/09/24 05:04:28;;;;;;;9.50;4.78;;;12.90;99.90;;;;;;4248595;27;20411;-53
2023/09/24 05:06:32;;;;;;;12.10;5.13;;;13.00;99.90;;;;;;4248572;27;20118;-55
2023/09/24 05:08:34;;;;;;;10.25;4.88;;;13.00;99.90;;;;;;4248318;27;20047;-54
2023/09/24 05:10:40;;;;;;;11.57;5.15;;;13.00;99.90;;;;;;4248733;27;20392;-53
2023/09/24 05:12:44;;;;;;;11.73;4.85;;;13.00;99.90;;;;;;4248584;27;20130;-54
2023/09/24 05:14:46;;;;;;;13.27;5.13;;;13.00;99.90;;;;;;4248280;27;20043;-52
2023/09/24 05:16:51;;;;;;;11.63;5.03;;;13.00;99.90;;;;;;4248933;27;20405;-52
2023/09/24 05:18:53;;;;;;;;;;;13.00;99.90;;;;;;4250354;27;20051;-54
2023/09/24 05:20:56;;;;;;;10.23;4.82;;;13.00;99.90;;;;;;4230992;28;19927;-53
2023/09/24 05:22:58;;;;;;;9.93;4.88;;;12.90;99.90;;;;;;4230364;28;20047;-53
2023/09/24 05:25:00;;;;;;;10.00;4.50;;;12.90;99.90;;;;;;4248774;27;20043;-53
2023/09/24 05:27:03;;;;;;;15.02;5.22;;;12.90;99.90;;;;;;4248366;27;20126;-53
2023/09/24 05:29:06;;;;;;;9.40;5.20;;;12.80;99.90;;;;;;4248017;27;20446;-52
2023/09/24 05:31:08;;;;;;;10.75;4.95;;;12.90;99.90;;;;;;4248248;27;20866;-53
2023/09/24 05:33:10;;;;;;;11.18;4.95;;;12.80;99.90;;;;;;4248188;27;20043;-53
2023/09/24 05:35:13;;;;;;;7.93;3.97;;;12.90;99.90;;;;;;4248290;27;20084;-53
2023/09/24 05:37:15;;;;;;;10.57;5.57;;;12.80;99.90;;;;;;4248276;27;20511;-53
2023/09/24 05:39:17;;;;;;;11.60;4.57;;;12.90;99.90;;;;;;4248342;27;20055;-52
2023/09/24 05:41:19;;;;;;;10.63;4.80;;;12.90;99.90;;;;;;4247987;27;20047;-59
2023/09/24 05:43:22;;;;;;;10.85;5.07;;;12.90;99.90;;;;;;4247941;27;20058;-53
2023/09/24 05:45:25;;;;;;;9.52;5.10;;;12.90;99.90;;;;;;4229834;28;20040;-54
2023/09/24 05:47:30;;;;;;;8.38;4.82;;;12.90;99.90;;;;;;4248017;27;20045;-54
2023/09/24 05:49:32;;;;;;;9.40;4.57;;;12.90;99.90;;;;;;4248093;27;20065;-54
2023/09/24 05:51:35;;;;;;;9.15;4.30;;;12.90;99.90;;;;;;4229982;28;20071;-53
2023/09/24 05:53:38;;;;;;;10.85;4.93;;;12.90;99.90;;;;;;4248096;27;20076;-53
2023/09/24 05:55:40;;;;;;;14.23;4.88;;;12.90;99.90;;;;;;4248333;27;20039;-55
2023/09/24 05:57:42;;;;;;;9.43;4.55;;;12.90;99.90;;;;;;4247946;27;20130;-53
2023/09/24 05:59:44;;;;;;;11.80;5.22;;;13.00;99.90;;;;;;4248198;27;20043;-53
2023/09/24 06:01:48;;;;;;;8.32;4.68;;;13.00;99.90;;;;;;4229693;28;20039;-54
2023/09/24 06:03:50;;;;;;;12.27;5.03;;;12.90;99.90;;;;;;4248132;27;20128;-55
2023/09/24 06:05:53;;;;;;;12.45;5.45;;;12.90;99.90;;;;;;4248621;27;20051;-58
2023/09/24 06:07:56;;;;;;;12.52;5.03;;;12.90;99.90;;;;;;4248881;27;20043;-53
2023/09/24 06:10:04;;;;;;;12.65;5.07;;;12.90;99.90;;;;;;4248371;27;20455;-54
2023/09/24 06:12:07;;;;;;;12.27;5.05;;;13.00;99.90;;;;;;4247779;27;20134;-53
2023/09/24 06:14:09;;;;;;;13.50;4.90;;;13.10;99.90;;;;;;4248551;27;20045;-53
2023/09/24 06:16:11;;;;;;;10.25;5.10;;;13.00;99.90;;;;;;4248993;27;20045;-53
2023/09/24 06:18:15;;;;;;;9.13;5.00;;;13.10;99.90;;;;;;4250140;27;20156;-54
2023/09/24 06:20:17;;;;;;;12.57;5.22;;;13.10;99.90;;;;;;4249550;27;20091;-53
2023/09/24 06:22:19;;;;;;;11.27;5.97;;;13.10;99.90;;;;;;4249184;27;20043;-54
2023/09/24 06:24:22;;;;;;;13.50;5.00;;;13.00;99.90;;;;;;4250092;27;20052;-53
2023/09/24 06:26:24;;;;;;;11.20;5.28;;;13.00;99.90;;;;;;4249320;27;20047;-66
2023/09/24 06:28:27;;;;;;;14.80;5.65;;;13.10;99.90;;;;;;4249934;27;20465;-55
2023/09/24 06:30:29;;;;;;;13.77;5.38;;;13.00;99.90;;;;;;4250255;28;20076;-52
2023/09/24 06:32:32;;;;;;;11.02;5.80;;;13.10;99.90;;;;;;4250067;28;20065;-58
2023/09/24 06:34:37;;;;;;;10.07;4.53;;;13.10;99.90;;;;;;4250777;28;20043;-53
2023/09/24 06:36:39;;;;;;;10.98;4.70;;;13.10;99.90;;;;;;4249903;28;20052;-53
2023/09/24 06:38:41;;;;;;;13.82;5.75;;;13.10;99.90;;;;;;4247980;28;20039;-56
2023/09/24 06:40:44;;;;;;;10.10;5.30;;;13.10;99.90;;;;;;4247102;27;20047;-61
2023/09/24 06:42:46;;;;;;;9.30;5.20;;;13.10;99.90;;;;;;4232237;28;20485;-52
2023/09/24 06:44:49;;;;;;;9.93;4.85;;;13.00;99.90;;;;;;4232354;28;20048;-54
2023/09/24 06:46:51;;;;;;;12.20;5.40;;;13.10;99.90;;;;;;4251071;27;20404;-53
2023/09/24 06:48:53;;;;;;;10.82;5.30;;;13.10;99.90;;;;;;4250977;27;20054;-53
2023/09/24 06:51:05;;;;;;;11.85;4.82;;;13.10;99.90;;;;;;4250870;27;20077;-53
2023/09/24 06:53:08;;;;;;;11.15;4.45;;;13.10;99.90;;;;;;4251368;27;20043;-55
2023/09/24 06:55:10;;;;;;;11.13;4.57;;;13.00;99.90;;;;;;4252213;27;20058;-57
2023/09/24 06:57:12;;;;;;;14.60;4.88;;;13.10;99.90;;;;;;4251777;27;20050;-53
2023/09/24 06:59:15;;;;;;;17.13;4.90;;;13.10;99.90;;;;;;4233113;28;20051;-55
2023/09/24 07:01:17;;;;;;;11.48;4.88;;;13.10;99.90;;;;;;4252378;27;20039;-57
2023/09/24 07:03:21;;;;;;;11.77;5.00;;;13.00;99.90;;;;;;4252408;27;20069;-53
2023/09/24 07:05:24;;;;;;;9.95;4.72;;;13.10;99.90;;;;;;4251242;27;20058;-53
2023/09/24 07:07:27;;;;;;;9.88;5.75;;;13.10;99.90;;;;;;4250691;27;20047;-53
2023/09/24 07:09:29;;;;;;;13.13;6.00;;;13.20;99.90;;;;;;4250738;27;20456;-54
2023/09/24 07:11:34;;;;;;;9.70;4.72;;;13.20;99.90;;;;;;4250521;27;20126;-54
2023/09/24 07:13:36;;;;;;;11.68;5.60;;;13.20;99.90;;;;;;4250327;27;20047;-53
2023/09/24 07:15:38;;;;;;;11.20;6.07;;;13.20;99.90;;;;;;4250615;27;20126;-53
2023/09/24 07:17:41;;;;;;;14.98;5.70;;;13.40;99.90;;;;;;4250312;27;20088;-54
2023/09/24 07:19:45;;;;;;;13.77;5.72;;;13.50;99.90;;;;;;4250389;27;20047;-54
2023/09/24 07:21:48;;;;;;;11.65;5.13;;;13.70;99.90;;;;;;4250421;27;20063;-53
2023/09/24 07:23:54;;;;;;;11.10;5.47;;;13.60;99.90;;;;;;4250493;27;20039;-54
2023/09/24 07:25:58;;;;;;;8.50;4.65;;;13.70;99.90;;;;;;4250239;27;20047;-54
2023/09/24 07:28:00;;;;;;;20.02;5.32;;;13.80;99.90;;;;;;4250254;27;20051;-53
2023/09/24 07:30:02;;;;;;;11.00;5.13;;;13.90;99.90;;;;;;4250515;27;20134;-53
2023/09/24 07:32:04;;;;;;;12.23;4.50;;;14.00;99.90;;;;;;4251464;27;20055;-55
2023/09/24 07:34:09;;;;;;;12.55;5.20;;;14.10;99.90;;;;;;4252454;27;20164;-54
2023/09/24 07:36:11;;;;;;;10.87;4.77;;;14.20;99.90;;;;;;4250580;27;20126;-54
2023/09/24 07:38:32;;;;;;;9.43;4.65;;;14.20;99.90;;;;;;4249917;27;20051;-54
2023/09/24 07:40:36;;;;;;;14.23;4.65;;;14.30;99.90;;;;;;4250226;27;20051;-52
2023/09/24 07:42:38;;;;;;;15.43;5.47;;;14.40;99.90;;;;;;4231913;28;20067;-53
2023/09/24 07:44:43;;;;;;;10.85;5.03;;;14.40;99.90;;;;;;4250234;27;20043;-54
2023/09/24 07:46:48;;;;;;;9.98;5.07;;;14.40;99.90;;;;;;4250140;27;20135;-53
2023/09/24 07:48:50;;;;;;;12.82;5.32;;;14.50;99.90;;;;;;4250194;27;20100;-53
2023/09/24 07:50:54;;;;;;;10.00;4.45;;;14.70;99.90;;;;;;4249646;27;20485;-53
2023/09/24 07:52:57;;;;;;;13.77;4.80;;;14.70;99.90;;;;;;4249867;27;20400;-53
2023/09/24 07:55:00;;;;;;;11.20;4.65;;;14.70;99.80;;;;;;4249398;27;20537;-53
2023/09/24 07:57:04;;;;;;;10.73;4.03;;;14.80;99.40;;;;;;4231853;28;20467;-54
2023/09/24 07:59:07;;;;;;;7.97;4.20;;;14.80;99.10;;;;;;4249966;27;20061;-53
2023/09/24 08:01:10;;;;;;;9.15;4.38;;;14.80;99.30;;;;;;4249606;27;20414;-53
2023/09/24 08:03:12;;;;;;;9.27;4.50;;;14.90;99.10;;;;;;4231631;28;20112;-53
2023/09/24 08:05:15;;;;;;;12.27;3.85;;;14.90;98.90;;;;;;4249535;27;20051;-53
2023/09/24 08:07:17;;;;;;;13.55;4.40;;;15.00;99.10;;;;;;4249836;27;20408;-53
2023/09/24 08:09:20;;;;;;;14.75;4.78;;;15.10;98.50;;;;;;4231158;28;20054;-52
2023/09/24 08:11:29;;;;;;;8.30;4.13;;;15.20;98.20;;;;;;4249423;27;20075;-53
2023/09/24 08:13:32;;;;;;;7.38;3.80;;;15.30;98.30;;;;;;4249533;27;20472;-53
2023/09/24 08:15:34;;;;;;;8.75;3.60;;;15.30;98.20;;;;;;4249399;27;20051;-53
2023/09/24 08:17:37;;;;;;;7.95;4.03;;;15.40;97.60;;;;;;4249228;27;20039;-53
2023/09/24 08:19:39;;;;;;;12.45;4.30;;;15.50;97.80;;;;;;4249476;27;20186;-54
2023/09/24 08:21:41;;;;;;;8.45;3.90;;;15.60;97.60;;;;;;4249795;27;20047;-53
2023/09/24 08:23:43;;;;;;;8.18;4.22;;;15.60;97.30;;;;;;4249334;27;20043;-54
2023/09/24 08:25:46;;;;;;;11.30;3.97;;;15.60;97.10;;;;;;4249401;27;20126;-53
2023/09/24 08:27:48;;;;;;;7.93;3.72;;;15.70;97.40;;;;;;4249815;27;20081;-53
2023/09/24 08:29:54;;;;;;;8.15;3.80;;;15.80;97.20;;;;;;4249223;27;20043;-53
2023/09/24 08:31:56;;;;;;;9.52;4.35;;;15.80;97.10;;;;;;4249506;27;20039;-54
2023/09/24 08:33:59;;;;;;;8.77;4.03;;;15.80;97.00;;;;;;4249120;27;20054;-53
2023/09/24 08:36:01;;;;;;;8.23;3.90;;;15.90;97.40;;;;;;4249503;27;20050;-54
2023/09/24 08:38:03;;;;;;;9.95;3.88;;;16.00;97.20;;;;;;4249346;27;20047;-53
2023/09/24 08:40:09;;;;;;;6.53;3.25;;;16.00;97.00;;;;;;4230873;28;20071;-53
2023/09/24 08:42:17;;;;;;;6.05;3.55;;;16.10;96.50;;;;;;4249475;27;20132;-53
2023/09/24 08:44:23;;;;;;;9.93;4.03;;;16.00;96.50;;;;;;4249067;27;20039;-52
2023/09/24 08:46:27;;;;;;;7.13;3.15;;;16.10;96.90;;;;;;4250938;27;20434;-54
2023/09/24 08:48:29;;;;;;;8.00;3.85;;;16.00;96.70;;;;;;4250887;27;20070;-55
2023/09/24 08:50:31;;;;;;;8.57;4.10;;;16.10;96.50;;;;;;4249787;27;20057;-52
2023/09/24 08:52:36;;;;;;;8.90;3.20;;;16.20;96.30;;;;;;4249522;27;20140;-53
2023/09/24 08:54:39;;;;;;;7.28;3.15;;;16.20;96.00;;;;;;4249259;27;20091;-52
2023/09/24 08:56:41;;;;;;;10.98;4.22;;;16.20;96.30;;;;;;4249179;27;20043;-53
2023/09/24 08:58:44;;;;;;;13.38;4.18;;;16.20;96.00;;;;;;4248943;27;20408;-53
2023/09/24 09:00:47;;;;;;;9.57;3.58;;;16.20;95.90;;;;;;4230543;28;20494;-54
2023/09/24 09:02:51;;;;;;;7.90;3.42;;;16.40;96.10;;;;;;4248794;27;20050;-53
2023/09/24 09:04:55;;;;;;;8.63;3.45;;;16.40;96.20;;;;;;4248048;27;20057;-54
2023/09/24 09:07:11;;;;;;;7.50;3.17;;;16.50;96.10;;;;;;4248494;27;20043;-54
2023/09/24 09:09:23;;;;;;;8.98;3.53;;;16.60;95.90;;;;;;4248623;27;20058;-54
2023/09/24 09:11:38;;;;;;;7.28;3.08;;;16.60;95.80;;;;;;4249811;27;20047;-54
2023/09/24 09:13:43;;;;;;;9.77;3.63;;;16.60;95.80;;;;;;4249768;27;20090;-53
2023/09/24 09:15:50;;;;;;;8.32;3.60;;;16.60;95.80;;;;;;4230644;28;20071;-53
2023/09/24 09:17:54;;;;;;;8.70;3.55;;;16.50;95.40;;;;;;4248674;27;20066;-53
2023/09/24 09:19:56;;;;;;;4.95;2.95;;;16.50;95.60;;;;;;4248838;27;20446;-53
2023/09/24 09:22:16;;;;;;;7.85;3.47;;;16.60;95.60;;;;;;4248325;27;20051;-53
2023/09/24 09:24:21;;;;;;;11.40;4.05;;;16.70;95.00;;;;;;4248346;27;20118;-54
2023/09/24 09:26:32;;;;;;;10.25;3.85;;;16.70;94.80;;;;;;4248290;27;20441;-54
2023/09/24 09:28:35;;;;;;;6.88;3.38;;;16.70;95.00;;;;;;4248512;27;20142;-51
2023/09/24 09:30:56;;;;;;;5.97;3.15;;;16.80;94.90;;;;;;4248419;27;20047;-52
2023/09/24 09:32:59;;;;;;;7.03;3.30;;;16.80;95.30;;;;;;4248394;27;20492;-51
2023/09/24 09:35:03;;;;;;;15.55;3.53;;;16.80;95.20;;;;;;4247968;27;20092;-52
2023/09/24 09:37:15;;;;;;;15.43;3.33;;;16.80;94.90;;;;;;4248427;27;20618;-52
2023/09/24 09:39:23;;;;;;;7.80;3.15;;;16.90;95.00;;;;;;4248185;27;20149;-52
2023/09/24 09:41:33;;;;;;;8.90;3.00;;;16.90;95.10;;;;;;4248015;27;20043;-50
2023/09/24 09:43:40;;;;;;;9.93;3.22;;;16.90;94.70;;;;;;4230246;28;20043;-51
2023/09/24 09:45:43;;;;;;;;;;;17.00;95.00;;;;;;4248479;27;20127;-52
2023/09/24 09:48:01;;;;;;;11.13;3.50;;;17.00;94.70;;;;;;4248064;27;20052;-52
2023/09/24 09:50:04;;;;;;;6.18;3.08;;;17.00;94.70;;;;;;4247576;27;20058;-53
2023/09/24 09:52:09;;;;;;;7.15;3.10;;;17.10;94.70;;;;;;4248050;27;20043;-54
2023/09/24 09:54:12;;;;;;;6.18;2.92;;;17.10;94.30;;;;;;4248211;27;20079;-53
2023/09/24 09:56:14;;;;;;;6.63;3.15;;;17.20;94.60;;;;;;4248078;27;20103;-53
2023/09/24 09:58:16;;;;;;;6.72;3.47;;;17.20;94.60;;;;;;4248089;27;20043;-53
2023/09/24 10:00:25;;;;;;;10.88;3.40;;;17.30;94.50;;;;;;4247781;27;20047;-54
2023/09/24 10:02:29;;;;;;;5.20;3.38;;;17.30;94.50;;;;;;4248266;27;20047;-52
2023/09/24 10:04:33;;;;;;;8.47;2.60;;;17.30;94.40;;;;;;4248511;27;20053;-53
2023/09/24 10:06:39;;;;;;;7.45;3.05;;;17.40;94.40;;;;;;4248337;27;20506;-54
2023/09/24 10:08:43;;;;;;;6.80;2.50;;;17.40;93.90;;;;;;4248287;27;20081;-53
2023/09/24 10:10:46;;;;;;;5.63;3.15;;;17.40;94.10;;;;;;4247732;27;20090;-53
2023/09/24 10:12:48;;;;;;;4.97;2.22;;;17.40;93.70;;;;;;4247863;27;20438;-54
2023/09/24 10:14:55;;;;;;;8.60;2.90;;;17.50;93.30;;;;;;4247905;27;20401;-53
2023/09/24 10:17:24;;;;;;;8.93;3.13;;;17.50;93.50;;;;;;4247500;27;20050;-54
2023/09/24 10:19:47;;;;;;;8.07;3.33;;;17.60;93.30;;;;;;4247168;27;20047;-53
2023/09/24 10:21:49;;;;;;;8.52;2.60;;;17.70;93.70;;;;;;4247318;27;20059;-54
2023/09/24 10:23:51;;;;;;;9.90;2.78;;;17.70;93.20;;;;;;4243005;27;20051;-53
2023/09/24 10:25:56;;;;;;;7.45;2.97;;;17.80;93.30;;;;;;4244618;27;20469;-51
2023/09/24 10:28:04;;;;;;;4.47;2.15;;;17.80;93.00;;;;;;4240320;27;20047;-51
2023/09/24 10:30:12;;;;;;;7.75;2.63;;;17.80;93.20;;;;;;4247800;27;20067;-51
2023/09/24 10:32:17;;;;;;;6.80;2.58;;;17.90;93.50;;;;;;4248216;27;20054;-54
2023/09/24 10:34:19;;;;;;;6.63;2.67;;;17.90;92.70;;;;;;4233028;28;20055;-53
2023/09/24 10:36:30;;;;;;;7.15;3.03;;;18.00;92.40;;;;;;4230556;28;20066;-54